createdAt,value
2023-02-12T00:01:21.114Z,7.65
2023-02-12T00:03:47.958Z,7.75
2023-02-12T00:06:16.134Z,7.95
2023-02-12T00:08:43.639Z,8.40
2023-02-12T00:11:17.994Z,11.32
2023-02-12T00:13:45.051Z,10.90
2023-02-12T00:16:15.704Z,11.77
2023-02-12T00:18:43.281Z,8.55
2023-02-12T00:21:10.745Z,10.90
2023-02-12T00:23:39.349Z,8.88
2023-02-12T00:26:12.074Z,8.23
2023-02-12T00:31:16.243Z,7.72
2023-02-12T00:33:43.285Z,9.00
2023-02-12T00:36:20.326Z,7.00
2023-02-12T00:38:47.639Z,9.50
2023-02-12T00:41:14.572Z,9.55
2023-02-12T00:43:41.882Z,10.32
2023-02-12T00:46:09.186Z,10.50
2023-02-12T00:48:36.876Z,8.43
2023-02-12T00:51:05.546Z,10.02
2023-02-12T00:53:33.045Z,6.85
2023-02-12T00:56:00.665Z,8.77
2023-02-12T00:58:28.137Z,7.95
2023-02-12T01:00:55.107Z,6.90
2023-02-12T01:03:22.387Z,8.02
2023-02-12T01:05:49.186Z,6.65
2023-02-12T01:08:17.217Z,8.38
2023-02-12T01:10:44.863Z,7.50
2023-02-12T01:13:15.792Z,8.10
2023-02-12T01:15:43.044Z,8.20
2023-02-12T01:18:10.159Z,8.45
2023-02-12T01:20:37.018Z,10.13
2023-02-12T01:23:06.993Z,8.55
2023-02-12T01:25:33.811Z,8.25
2023-02-12T01:28:00.569Z,8.95
2023-02-12T01:30:27.362Z,8.85
2023-02-12T01:32:55.644Z,8.98
2023-02-12T01:35:22.470Z,8.35
2023-02-12T01:37:49.205Z,8.50
2023-02-12T01:40:18.674Z,8.27
2023-02-12T01:42:45.426Z,8.90
2023-02-12T01:45:14.674Z,8.23
2023-02-12T01:47:45.193Z,8.95
2023-02-12T01:50:18.080Z,9.27
2023-02-12T01:55:16.073Z,8.52
2023-02-12T01:57:46.091Z,8.98
2023-02-12T02:00:21.424Z,9.65
2023-02-12T02:02:58.663Z,7.85
2023-02-12T02:05:41.408Z,9.07
2023-02-12T02:08:09.335Z,9.75
2023-02-12T02:10:36.117Z,10.70
2023-02-12T02:13:22.192Z,9.68
2023-02-12T02:15:56.414Z,9.50
2023-02-12T02:18:35.595Z,9.05
2023-02-12T02:21:42.792Z,11.43
2023-02-12T02:24:38.278Z,9.60
2023-02-12T02:27:17.339Z,10.63
2023-02-12T02:30:24.792Z,10.57
2023-02-12T02:33:10.472Z,9.05
2023-02-12T02:36:54.101Z,8.25
2023-02-12T02:39:38.810Z,9.02
2023-02-12T02:42:17.664Z,9.32
2023-02-12T02:44:54.374Z,9.02
2023-02-12T02:47:45.107Z,8.52
2023-02-12T02:50:23.110Z,9.00
2023-02-12T02:53:03.873Z,8.27
2023-02-12T02:55:40.454Z,9.93
2023-02-12T02:58:15.433Z,10.05
2023-02-12T03:01:31.617Z,8.60
2023-02-12T03:04:06.885Z,7.60
2023-02-12T03:06:45.867Z,8.65
2023-02-12T03:09:23.874Z,9.88
2023-02-12T03:11:51.791Z,7.80
2023-02-12T03:14:25.808Z,9.00
2023-02-12T03:17:01.040Z,8.68
2023-02-12T03:19:34.682Z,7.35
2023-02-12T03:22:26.768Z,10.40
2023-02-12T03:25:31.359Z,9.13
2023-02-12T03:28:11.793Z,9.55
2023-02-12T03:31:21.932Z,8.73
2023-02-12T03:34:28.634Z,8.95
2023-02-12T03:37:29.910Z,10.50
2023-02-12T03:39:59.416Z,7.53
2023-02-12T03:42:41.587Z,7.50
2023-02-12T03:45:49.382Z,8.90
2023-02-12T03:48:32.078Z,8.88
2023-02-12T03:51:05.818Z,9.48
2023-02-12T03:53:32.846Z,8.68
2023-02-12T03:56:27.524Z,8.98
2023-02-12T03:58:54.260Z,8.13
2023-02-12T04:01:21.320Z,9.15
2023-02-12T04:03:48.682Z,9.25
2023-02-12T04:06:27.540Z,8.98
2023-02-12T04:08:57.929Z,10.07
2023-02-12T04:11:45.803Z,8.50
2023-02-12T04:14:42.318Z,8.88
2023-02-12T04:17:21.458Z,8.95
2023-02-12T04:20:27.843Z,9.40
2023-02-12T04:23:50.224Z,10.73
2023-02-12T04:26:33.661Z,9.20
2023-02-12T04:29:22.933Z,9.20
2023-02-12T04:32:19.677Z,7.97
2023-02-12T04:35:03.215Z,11.27
2023-02-12T04:37:45.545Z,9.65
2023-02-12T04:40:16.201Z,8.18
2023-02-12T04:42:49.079Z,9.82
2023-02-12T04:47:48.840Z,8.70
2023-02-12T04:50:15.814Z,9.48
2023-02-12T04:52:42.581Z,9.82
2023-02-12T04:55:09.552Z,8.73
2023-02-12T04:57:36.523Z,10.02
2023-02-12T05:00:08.466Z,8.10
2023-02-12T05:02:35.475Z,10.97
2023-02-12T05:05:02.375Z,10.18
2023-02-12T05:07:29.179Z,11.50
2023-02-12T05:09:56.123Z,9.20
2023-02-12T05:12:22.920Z,9.77
2023-02-12T05:14:49.633Z,8.02
2023-02-12T05:17:16.411Z,10.77
2023-02-12T05:19:43.169Z,9.52
2023-02-12T05:22:09.926Z,10.00
2023-02-12T05:24:37.508Z,9.55
2023-02-12T05:27:04.226Z,9.55
2023-02-12T05:29:30.966Z,9.27
2023-02-12T05:31:57.850Z,8.75
2023-02-12T05:34:24.668Z,8.07
2023-02-12T05:36:51.443Z,8.25
2023-02-12T05:39:18.322Z,8.90
2023-02-12T05:41:45.048Z,7.95
2023-02-12T05:44:12.195Z,8.40
2023-02-12T05:46:39.578Z,10.10
2023-02-12T05:49:06.407Z,8.85
2023-02-12T05:51:33.379Z,9.40
2023-02-12T05:54:03.917Z,7.85
2023-02-12T05:56:39.447Z,9.00
2023-02-12T05:59:12.834Z,7.70
2023-02-12T06:01:42.622Z,8.63
2023-02-12T06:04:17.200Z,8.85
2023-02-12T06:06:44.769Z,8.25
2023-02-12T06:09:13.520Z,8.73
2023-02-12T06:11:40.501Z,9.40
2023-02-12T06:14:11.466Z,9.68
2023-02-12T06:16:38.411Z,9.35
2023-02-12T06:19:06.592Z,8.02
2023-02-12T06:21:34.051Z,9.27
2023-02-12T06:24:01.289Z,9.30
2023-02-12T06:26:28.290Z,10.05
2023-02-12T06:28:55.439Z,9.75
2023-02-12T06:31:32.548Z,7.65
2023-02-12T06:34:06.480Z,9.43
2023-02-12T06:36:34.235Z,10.27
2023-02-12T06:39:03.071Z,10.65
2023-02-12T06:41:29.912Z,10.25
2023-02-12T06:43:56.671Z,9.95
2023-02-12T06:46:23.934Z,10.23
2023-02-12T06:48:56.956Z,9.52
2023-02-12T06:51:24.726Z,7.60
2023-02-12T06:53:53.964Z,9.45
2023-02-12T06:56:22.896Z,8.90
2023-02-12T06:58:56.653Z,8.98
2023-02-12T07:01:28.031Z,9.48
2023-02-12T07:03:58.141Z,8.95
2023-02-12T07:06:26.749Z,9.57
2023-02-12T07:08:55.796Z,10.30
2023-02-12T07:11:29.048Z,10.77
2023-02-12T07:13:55.944Z,11.95
2023-02-12T07:16:23.234Z,11.95
2023-02-12T07:18:50.216Z,12.18
2023-02-12T07:21:18.446Z,10.38
2023-02-12T07:23:53.912Z,11.10
2023-02-12T07:26:22.351Z,11.50
2023-02-12T07:28:50.760Z,10.73
2023-02-12T07:31:21.882Z,10.32
2023-02-12T07:33:49.320Z,5.72
2023-02-12T07:36:19.104Z,7.43
2023-02-12T07:38:46.335Z,8.30
2023-02-12T07:41:23.638Z,9.10
2023-02-12T07:43:56.439Z,9.27
2023-02-12T07:49:06.407Z,7.47
2023-02-12T07:51:35.139Z,7.72
2023-02-12T07:54:02.833Z,8.05
2023-02-12T07:56:35.312Z,6.47
2023-02-12T07:59:08.794Z,5.18
2023-02-12T08:01:51.293Z,6.50
2023-02-12T08:04:22.474Z,7.78
2023-02-12T08:06:51.961Z,6.07
2023-02-12T08:09:24.938Z,7.38
2023-02-12T08:11:52.274Z,6.53
2023-02-12T08:14:21.355Z,5.88
2023-02-12T08:16:50.092Z,6.95
2023-02-12T08:19:21.121Z,7.88
2023-02-12T08:21:53.367Z,6.80
2023-02-12T08:24:22.274Z,7.32
2023-02-12T08:26:49.438Z,7.43
2023-02-12T08:29:20.444Z,4.63
2023-02-12T08:31:50.026Z,5.68
2023-02-12T08:34:23.924Z,7.03
2023-02-12T08:36:54.160Z,5.30
2023-02-12T08:39:22.476Z,6.32
2023-02-12T08:41:50.185Z,5.97
2023-02-12T08:44:17.408Z,9.00
2023-02-12T08:46:47.463Z,8.88
2023-02-12T08:49:24.377Z,7.35
2023-02-12T08:51:54.382Z,6.63
2023-02-12T08:54:30.750Z,7.65
2023-02-12T08:57:00.339Z,5.43
2023-02-12T08:59:27.433Z,5.78
2023-02-12T09:01:55.208Z,7.50
2023-02-12T09:04:28.408Z,6.30
2023-02-12T09:06:56.201Z,6.20
2023-02-12T09:09:23.554Z,4.78
2023-02-12T09:11:50.441Z,5.35
2023-02-12T09:14:23.771Z,9.18
2023-02-12T09:16:53.250Z,7.80
2023-02-12T09:19:20.125Z,6.20
2023-02-12T09:21:56.011Z,5.63
2023-02-12T09:24:28.280Z,4.78
2023-02-12T09:26:55.545Z,5.47
2023-02-12T09:29:22.516Z,4.70
2023-02-12T09:31:49.429Z,4.95
2023-02-12T09:34:16.282Z,4.55
2023-02-12T09:36:42.995Z,4.78
2023-02-12T09:39:09.742Z,3.78
2023-02-12T09:42:08.854Z,4.63
2023-02-12T09:44:41.712Z,4.32
2023-02-12T09:50:15.542Z,3.83
2023-02-12T09:52:42.449Z,4.43
2023-02-12T09:55:15.851Z,3.72
2023-02-12T09:57:43.406Z,4.13
2023-02-12T10:00:31.291Z,5.70
2023-02-12T10:03:05.453Z,5.63
2023-02-12T10:05:38.399Z,5.60
2023-02-12T10:08:11.034Z,5.68
2023-02-12T10:14:47.142Z,5.13
2023-02-12T10:17:55.928Z,5.18
2023-02-12T10:20:59.036Z,5.45
2023-02-12T10:24:03.875Z,5.90
2023-02-12T10:26:38.923Z,6.40
2023-02-12T10:29:22.344Z,5.45
2023-02-12T10:31:54.517Z,5.60
2023-02-12T10:34:26.203Z,6.20
2023-02-12T10:37:17.759Z,7.35
2023-02-12T10:39:54.733Z,6.60
2023-02-12T10:42:43.880Z,6.38
2023-02-12T10:45:26.796Z,6.18
2023-02-12T10:48:09.348Z,5.07
2023-02-12T10:51:06.990Z,6.20
2023-02-12T10:53:42.963Z,4.70
2023-02-12T10:56:17.394Z,6.18
2023-02-12T10:58:49.738Z,6.15
2023-02-12T11:01:39.194Z,5.72
2023-02-12T11:04:32.533Z,5.50
2023-02-12T11:07:06.938Z,5.35
2023-02-12T11:09:45.426Z,6.20
2023-02-12T11:12:35.961Z,6.18
2023-02-12T11:15:18.445Z,4.50
2023-02-12T11:18:04.439Z,6.47
2023-02-12T11:20:50.354Z,7.22
2023-02-12T11:23:42.443Z,6.43
2023-02-12T11:26:18.000Z,7.07
2023-02-12T11:29:24.622Z,7.65
2023-02-12T11:32:10.119Z,8.05
2023-02-12T11:34:37.313Z,7.72
2023-02-12T11:37:05.272Z,9.25
2023-02-12T11:39:39.108Z,6.32
2023-02-12T11:42:18.921Z,6.93
2023-02-12T11:44:55.890Z,7.68
2023-02-12T11:47:35.577Z,7.18
2023-02-12T11:50:27.600Z,5.30
2023-02-12T11:53:00.472Z,5.45
2023-02-12T11:58:25.580Z,4.20
2023-02-12T12:01:06.381Z,4.00
2023-02-12T12:03:41.192Z,3.45
2023-02-12T12:06:14.790Z,3.05
2023-02-12T12:09:10.068Z,3.72
2023-02-12T12:11:57.498Z,3.47
2023-02-12T12:14:30.515Z,3.45
2023-02-12T12:17:22.953Z,4.00
2023-02-12T12:20:05.119Z,2.97
2023-02-12T12:22:54.754Z,2.63
2023-02-12T12:25:35.398Z,2.50
2023-02-12T12:28:50.086Z,3.30
2023-02-12T12:31:38.121Z,2.58
2023-02-12T12:34:20.199Z,2.33
2023-02-12T12:37:26.100Z,2.22
2023-02-12T12:40:14.783Z,2.05
2023-02-12T12:43:00.358Z,2.75
2023-02-12T12:45:47.975Z,2.58
2023-02-12T12:48:32.833Z,2.35
2023-02-12T12:51:30.813Z,2.35
2023-02-12T12:54:39.525Z,4.13
2023-02-12T12:57:17.043Z,2.80
2023-02-12T13:00:35.418Z,3.47
2023-02-12T13:03:06.774Z,2.97
2023-02-12T13:06:11.949Z,2.95
2023-02-12T13:09:09.161Z,3.47
2023-02-12T13:12:23.644Z,3.40
2023-02-12T13:15:58.635Z,3.08
2023-02-12T13:18:43.259Z,2.90
2023-02-12T13:21:24.430Z,2.78
2023-02-12T13:24:21.972Z,2.65
2023-02-12T13:27:02.741Z,3.25
2023-02-12T13:29:42.151Z,2.13
2023-02-12T13:32:29.971Z,2.42
2023-02-12T13:34:58.135Z,2.38
2023-02-12T13:37:49.024Z,2.30
2023-02-12T13:40:20.171Z,2.15
2023-02-12T13:43:13.137Z,1.70
2023-02-12T13:46:08.469Z,2.03
2023-02-12T13:49:21.731Z,1.48
2023-02-12T13:52:28.117Z,1.67
2023-02-12T13:55:26.797Z,1.50
2023-02-12T13:58:34.951Z,1.80
2023-02-12T14:01:01.735Z,2.08
2023-02-12T14:03:31.501Z,2.22
2023-02-12T14:06:21.559Z,1.58
2023-02-12T14:09:07.522Z,1.48
2023-02-12T14:11:34.650Z,1.98
2023-02-12T14:14:06.593Z,1.92
2023-02-12T14:16:33.256Z,1.95
2023-02-12T14:19:37.913Z,2.22
2023-02-12T14:22:26.409Z,1.67
2023-02-12T14:24:55.324Z,1.88
2023-02-12T14:27:42.020Z,1.65
2023-02-12T14:30:12.007Z,1.42
2023-02-12T14:32:50.892Z,1.23
2023-02-12T14:35:29.068Z,1.48
2023-02-12T14:38:05.572Z,1.33
2023-02-12T14:40:35.335Z,1.80
2023-02-12T14:43:24.429Z,1.63
2023-02-12T14:45:51.220Z,1.55
2023-02-12T14:48:53.679Z,1.55
2023-02-12T14:51:45.198Z,2.60
2023-02-12T14:54:22.042Z,1.77
2023-02-12T14:56:50.928Z,2.63
2023-02-12T14:59:24.697Z,1.85
2023-02-12T15:01:52.730Z,1.80
2023-02-12T15:04:33.404Z,2.17
2023-02-12T15:07:17.220Z,2.50
2023-02-12T15:09:53.141Z,2.22
2023-02-12T15:12:32.988Z,2.15
2023-02-12T15:15:15.942Z,1.98
2023-02-12T15:17:58.514Z,1.70
2023-02-12T15:20:35.507Z,2.15
2023-02-12T15:23:03.216Z,2.03
2023-02-12T15:25:32.510Z,2.38
2023-02-12T15:28:17.002Z,2.30
2023-02-12T15:30:43.996Z,2.42
2023-02-12T15:33:35.736Z,2.05
2023-02-12T15:36:04.616Z,1.85
2023-02-12T15:38:37.934Z,2.50
2023-02-12T15:41:06.770Z,2.25
2023-02-12T15:43:40.057Z,2.30
2023-02-12T15:46:17.108Z,1.80
2023-02-12T15:48:45.119Z,1.80
2023-02-12T15:51:20.615Z,2.10
2023-02-12T15:53:47.993Z,2.75
2023-02-12T15:56:26.217Z,2.60
2023-02-12T15:58:58.561Z,2.92
2023-02-12T16:01:32.478Z,2.80
2023-02-12T16:04:07.341Z,2.78
2023-02-12T16:06:39.326Z,2.83
2023-02-12T16:09:19.835Z,2.83
2023-02-12T16:11:48.206Z,2.50
2023-02-12T16:14:35.028Z,3.13
2023-02-12T16:17:01.894Z,3.15
2023-02-12T16:19:37.308Z,3.60
2023-02-12T16:22:16.874Z,3.83
2023-02-12T16:24:52.961Z,3.50
2023-02-12T16:27:32.240Z,2.10
2023-02-12T16:30:38.917Z,2.95
2023-02-12T16:33:32.548Z,3.65
2023-02-12T16:36:13.827Z,3.72
2023-02-12T16:38:52.588Z,3.08
2023-02-12T16:41:19.934Z,3.58
2023-02-12T16:44:16.812Z,3.80
2023-02-12T16:46:54.961Z,3.22
2023-02-12T16:49:25.022Z,4.40
2023-02-12T16:51:52.859Z,3.38
2023-02-12T16:54:35.112Z,4.53
2023-02-12T16:57:02.492Z,4.40
2023-02-12T16:59:30.019Z,3.22
2023-02-12T17:02:11.489Z,4.18
2023-02-12T17:04:38.395Z,5.65
2023-02-12T17:07:18.345Z,4.53
2023-02-12T17:09:45.103Z,4.70
2023-02-12T17:12:11.904Z,5.10
2023-02-12T17:14:38.658Z,4.55
2023-02-12T17:17:05.525Z,4.90
2023-02-12T17:19:32.293Z,5.45
2023-02-12T17:21:59.191Z,6.55
2023-02-12T17:24:30.304Z,6.57
2023-02-12T17:26:57.725Z,5.00
2023-02-12T17:29:25.539Z,4.82
2023-02-12T17:31:56.344Z,5.00
2023-02-12T17:34:23.870Z,7.28
2023-02-12T17:36:50.940Z,5.70
2023-02-12T17:39:20.913Z,6.03
2023-02-12T17:41:48.259Z,5.65
2023-02-12T17:44:15.715Z,5.30
2023-02-12T17:46:43.225Z,5.55
2023-02-12T17:49:10.364Z,5.25
2023-02-12T17:51:37.852Z,4.50
2023-02-12T17:54:05.376Z,4.68
2023-02-12T17:56:32.519Z,4.93
2023-02-12T17:58:59.988Z,4.20
2023-02-12T18:01:27.249Z,4.63
2023-02-12T18:03:55.952Z,4.07
2023-02-12T18:06:26.852Z,4.85
2023-02-12T18:08:54.029Z,4.68
2023-02-12T18:11:21.347Z,4.72
2023-02-12T18:13:52.350Z,4.93
2023-02-12T18:16:19.644Z,4.60
2023-02-12T18:18:46.428Z,4.88
2023-02-12T18:21:15.904Z,4.90
2023-02-12T18:23:43.702Z,6.28
2023-02-12T18:26:14.565Z,5.20
2023-02-12T18:28:41.470Z,5.45
2023-02-12T18:31:09.414Z,7.88
2023-02-12T18:33:37.648Z,8.70
2023-02-12T18:36:11.887Z,6.40
2023-02-12T18:38:40.925Z,9.00
2023-02-12T18:41:15.283Z,12.50
2023-02-12T18:43:43.932Z,7.35
2023-02-12T18:46:14.928Z,8.13
2023-02-12T18:48:42.762Z,8.60
2023-02-12T18:51:14.590Z,9.57
2023-02-12T18:53:41.609Z,10.20
2023-02-12T18:56:11.170Z,10.80
2023-02-12T18:58:38.078Z,10.20
2023-02-12T19:01:20.431Z,10.98
2023-02-12T19:03:49.557Z,31.92
2023-02-12T19:06:16.581Z,23.02
2023-02-12T19:08:43.475Z,26.67
2023-02-12T19:11:12.641Z,22.92
2023-02-12T19:13:40.852Z,23.58
2023-02-12T19:16:15.878Z,21.25
2023-02-12T19:18:43.180Z,15.70
2023-02-12T19:21:13.397Z,15.57
2023-02-12T19:23:40.381Z,11.63
2023-02-12T19:26:10.422Z,15.52
2023-02-12T19:28:38.624Z,12.65
2023-02-12T19:31:36.793Z,12.60
2023-02-12T19:34:07.676Z,10.57
2023-02-12T19:36:37.150Z,11.95
2023-02-12T19:39:06.114Z,11.18
2023-02-12T19:41:40.917Z,11.13
2023-02-12T19:44:19.923Z,10.73
2023-02-12T19:46:48.697Z,9.23
2023-02-12T19:49:22.701Z,9.15
2023-02-12T19:51:49.956Z,8.95
2023-02-12T19:54:19.258Z,8.15
2023-02-12T19:56:46.435Z,9.15
2023-02-12T19:59:17.494Z,9.80
2023-02-12T20:01:45.398Z,11.18
2023-02-12T20:04:14.146Z,9.98
2023-02-12T20:06:41.868Z,12.52
2023-02-12T20:09:10.898Z,12.70
2023-02-12T20:11:38.649Z,10.05
2023-02-12T20:14:11.791Z,8.13
2023-02-12T20:16:41.736Z,8.80
2023-02-12T20:19:23.262Z,9.15
2023-02-12T20:21:54.373Z,9.00
2023-02-12T20:24:27.090Z,8.43
2023-02-12T20:26:54.810Z,7.40
2023-02-12T20:29:22.617Z,6.32
2023-02-12T20:31:49.917Z,9.15
2023-02-12T20:34:18.588Z,8.93
2023-02-12T20:36:47.157Z,7.72
2023-02-12T20:39:17.732Z,7.88
2023-02-12T20:41:44.523Z,8.80
2023-02-12T20:44:20.085Z,6.60
2023-02-12T20:46:50.106Z,9.05
2023-02-12T20:49:20.295Z,7.22
2023-02-12T20:51:50.361Z,8.70
2023-02-12T20:54:17.392Z,8.38
2023-02-12T20:56:44.289Z,8.55
2023-02-12T20:59:11.435Z,9.18
2023-02-12T21:01:41.280Z,7.78
2023-02-12T21:04:14.985Z,10.65
2023-02-12T21:06:42.399Z,8.27
2023-02-12T21:09:14.342Z,8.55
2023-02-12T21:11:45.315Z,9.67
2023-02-12T21:14:23.597Z,9.40
2023-02-12T21:16:53.748Z,9.02
2023-02-12T21:19:21.729Z,9.15
2023-02-12T21:21:48.579Z,8.63
2023-02-12T21:24:20.364Z,7.97
2023-02-12T21:26:47.679Z,8.77
2023-02-12T21:29:15.353Z,8.88
2023-02-12T21:31:47.582Z,7.90
2023-02-12T21:34:23.403Z,8.88
2023-02-12T21:36:53.683Z,7.57
2023-02-12T21:39:26.486Z,8.50
2023-02-12T21:44:25.546Z,8.45
2023-02-12T21:46:53.090Z,7.72
2023-02-12T21:49:25.172Z,8.52
2023-02-12T21:51:58.757Z,9.23
2023-02-12T21:54:26.270Z,8.13
2023-02-12T21:56:53.304Z,8.23
2023-02-12T21:59:20.253Z,9.43
2023-02-12T22:01:53.045Z,7.07
2023-02-12T22:06:50.309Z,7.93
2023-02-12T22:09:19.914Z,7.22
2023-02-12T22:11:46.979Z,9.00
2023-02-12T22:14:17.152Z,7.28
2023-02-12T22:16:44.873Z,8.27
2023-02-12T22:19:11.682Z,8.60
2023-02-12T22:21:41.193Z,9.25
2023-02-12T22:24:16.067Z,7.82
2023-02-12T22:26:44.340Z,7.88
2023-02-12T22:29:14.713Z,7.53
2023-02-12T22:31:44.146Z,6.72
2023-02-12T22:34:14.795Z,7.18
2023-02-12T22:36:42.985Z,7.70
2023-02-12T22:39:13.109Z,7.97
2023-02-12T22:41:41.996Z,17.48
2023-02-12T22:44:11.661Z,16.15
2023-02-12T22:46:38.610Z,13.93
2023-02-12T22:49:05.665Z,16.45
2023-02-12T22:51:34.599Z,16.75
2023-02-12T22:54:01.374Z,15.27
2023-02-12T22:56:28.438Z,12.73
2023-02-12T22:59:01.571Z,7.97
2023-02-12T23:01:29.793Z,8.60
2023-02-12T23:03:57.073Z,7.50
2023-02-12T23:06:27.745Z,8.10
2023-02-12T23:09:02.485Z,8.70
2023-02-12T23:11:32.507Z,6.72
2023-02-12T23:14:00.677Z,5.88
2023-02-12T23:16:27.783Z,7.38
2023-02-12T23:19:00.000Z,7.38
2023-02-12T23:21:29.650Z,6.13
2023-02-12T23:23:59.173Z,5.72
2023-02-12T23:26:27.802Z,6.80
2023-02-12T23:28:55.985Z,5.90
2023-02-12T23:31:23.626Z,6.20
2023-02-12T23:33:50.586Z,7.03
2023-02-12T23:36:17.409Z,6.57
2023-02-12T23:38:44.182Z,7.80
2023-02-12T23:41:11.015Z,6.75
2023-02-12T23:43:37.776Z,6.70
2023-02-12T23:46:04.765Z,6.80
2023-02-12T23:48:31.576Z,7.15
2023-02-12T23:50:58.599Z,7.55
2023-02-12T23:53:25.657Z,7.72
2023-02-12T23:55:52.381Z,6.65
2023-02-12T23:58:19.341Z,7.88
